createdAt,value
2023-01-13T00:01:26.824Z,24.83
2023-01-13T00:03:53.232Z,21.38
2023-01-13T00:06:21.281Z,35.92
2023-01-13T00:08:51.377Z,22.73
2023-01-13T00:11:18.209Z,34.60
2023-01-13T00:13:44.595Z,29.67
2023-01-13T00:16:15.731Z,44.80
2023-01-13T00:18:42.205Z,37.20
2023-01-13T00:21:11.964Z,24.13
2023-01-13T00:23:39.471Z,28.10
2023-01-13T00:26:07.539Z,23.48
2023-01-13T00:28:34.068Z,22.20
2023-01-13T00:31:14.089Z,30.80
2023-01-13T00:33:40.904Z,36.83
2023-01-13T00:36:08.626Z,34.05
2023-01-13T00:38:35.652Z,54.42
2023-01-13T00:41:03.327Z,33.33
2023-01-13T00:43:32.595Z,28.92
2023-01-13T00:45:59.312Z,37.60
2023-01-13T00:48:26.048Z,38.03
2023-01-13T00:50:59.530Z,25.63
2023-01-13T00:53:26.226Z,38.08
2023-01-13T00:55:59.848Z,33.33
2023-01-13T00:58:26.334Z,24.45
2023-01-13T01:00:52.785Z,30.65
2023-01-13T01:03:19.218Z,32.58
2023-01-13T01:05:45.560Z,28.50
2023-01-13T01:08:11.856Z,33.38
2023-01-13T01:10:38.230Z,30.40
2023-01-13T01:13:04.561Z,46.42
2023-01-13T01:15:30.912Z,27.75
2023-01-13T01:17:57.265Z,32.17
2023-01-13T01:20:23.618Z,30.25
2023-01-13T01:22:50.105Z,38.58
2023-01-13T01:25:16.484Z,30.50
2023-01-13T01:27:42.803Z,34.10
2023-01-13T01:30:09.344Z,33.65
2023-01-13T01:32:35.690Z,34.70
2023-01-13T01:35:02.093Z,34.90
2023-01-13T01:37:28.577Z,23.38
2023-01-13T01:39:54.909Z,31.20
2023-01-13T01:42:41.157Z,31.13
2023-01-13T01:45:13.960Z,37.90
2023-01-13T01:47:40.987Z,36.25
2023-01-13T01:50:07.671Z,31.25
2023-01-13T01:52:36.035Z,26.30
2023-01-13T01:55:19.462Z,26.77
2023-01-13T01:57:52.478Z,35.30
2023-01-13T02:00:19.041Z,31.02
2023-01-13T02:02:47.561Z,30.92
2023-01-13T02:05:14.153Z,28.27
2023-01-13T02:07:42.026Z,31.70
2023-01-13T02:10:10.405Z,26.75
2023-01-13T02:12:37.591Z,38.20
2023-01-13T02:15:07.210Z,28.05
2023-01-13T02:17:48.525Z,32.67
2023-01-13T02:20:28.600Z,31.77
2023-01-13T02:23:33.491Z,21.83
2023-01-13T02:26:10.663Z,24.48
2023-01-13T02:28:37.131Z,25.08
2023-01-13T02:31:25.725Z,22.40
2023-01-13T02:34:05.633Z,32.45
2023-01-13T02:36:38.364Z,22.50
2023-01-13T02:39:09.646Z,30.13
2023-01-13T02:42:00.688Z,24.05
2023-01-13T02:44:30.980Z,22.75
2023-01-13T02:46:57.367Z,26.02
2023-01-13T02:49:50.823Z,20.02
2023-01-13T02:52:29.969Z,25.27
2023-01-13T02:54:57.949Z,30.23
2023-01-13T02:57:26.059Z,24.75
2023-01-13T02:59:54.295Z,20.60
2023-01-13T03:02:21.788Z,27.65
2023-01-13T03:04:50.408Z,26.75
2023-01-13T03:07:37.012Z,29.35
2023-01-13T03:10:22.188Z,21.88
2023-01-13T03:12:48.673Z,17.50
2023-01-13T03:15:14.983Z,20.75
2023-01-13T03:17:44.043Z,24.00
2023-01-13T03:20:13.537Z,17.65
2023-01-13T03:22:44.642Z,20.98
2023-01-13T03:25:18.421Z,18.60
2023-01-13T03:28:05.081Z,19.67
2023-01-13T03:30:40.995Z,20.17
2023-01-13T03:33:17.769Z,17.45
2023-01-13T03:35:46.252Z,19.50
2023-01-13T03:38:15.012Z,24.50
2023-01-13T03:40:48.718Z,23.05
2023-01-13T03:43:36.205Z,10.40
2023-01-13T03:46:04.350Z,29.33
2023-01-13T03:48:33.044Z,12.73
2023-01-13T03:51:03.793Z,13.88
2023-01-13T03:53:32.624Z,11.05
2023-01-13T03:56:01.375Z,16.05
2023-01-13T03:58:30.451Z,10.85
2023-01-13T04:01:11.379Z,18.77
2023-01-13T04:03:40.900Z,11.98
2023-01-13T04:06:18.436Z,11.73
2023-01-13T04:08:50.138Z,6.07
2023-01-13T04:11:25.668Z,10.48
2023-01-13T04:13:52.775Z,14.50
2023-01-13T04:16:19.188Z,16.20
2023-01-13T04:18:45.541Z,11.30
2023-01-13T04:21:11.941Z,15.23
2023-01-13T04:23:38.430Z,14.63
2023-01-13T04:26:05.020Z,22.67
2023-01-13T04:28:31.483Z,20.83
2023-01-13T04:30:57.911Z,13.45
2023-01-13T04:33:24.405Z,15.75
2023-01-13T04:35:52.687Z,16.77
2023-01-13T04:38:19.902Z,13.52
2023-01-13T04:40:46.585Z,18.30
2023-01-13T04:43:13.406Z,14.00
2023-01-13T04:45:39.794Z,15.88
2023-01-13T04:48:06.368Z,9.45
2023-01-13T04:50:32.840Z,18.38
2023-01-13T04:53:01.118Z,24.55
2023-01-13T04:55:27.587Z,12.57
2023-01-13T04:57:53.984Z,17.23
2023-01-13T05:00:21.710Z,17.85
2023-01-13T05:02:51.827Z,18.10
2023-01-13T05:05:19.033Z,21.83
2023-01-13T05:07:45.576Z,12.52
2023-01-13T05:10:12.238Z,6.07
2023-01-13T05:12:57.247Z,19.40
2023-01-13T05:15:42.092Z,14.75
2023-01-13T05:18:08.664Z,9.95
2023-01-13T05:20:35.116Z,12.15
2023-01-13T05:23:20.380Z,10.15
2023-01-13T05:25:47.761Z,16.08
2023-01-13T05:28:14.503Z,11.27
2023-01-13T05:30:43.606Z,13.18
2023-01-13T05:33:10.966Z,14.85
2023-01-13T05:35:38.473Z,21.38
2023-01-13T05:38:04.797Z,10.40
2023-01-13T05:40:50.272Z,11.43
2023-01-13T05:43:20.374Z,7.22
2023-01-13T05:45:59.049Z,15.48
2023-01-13T05:48:35.797Z,18.02
2023-01-13T05:51:03.460Z,18.73
2023-01-13T05:53:30.149Z,17.23
2023-01-13T05:55:56.685Z,20.40
2023-01-13T05:58:25.221Z,19.45
2023-01-13T06:00:51.859Z,14.20
2023-01-13T06:03:21.460Z,18.65
2023-01-13T06:05:48.339Z,18.55
2023-01-13T06:08:14.801Z,10.48
2023-01-13T06:10:41.306Z,25.83
2023-01-13T06:13:07.764Z,14.43
2023-01-13T06:15:34.294Z,11.80
2023-01-13T06:18:01.927Z,19.63
2023-01-13T06:20:28.349Z,22.20
2023-01-13T06:22:54.874Z,19.33
2023-01-13T06:25:30.424Z,11.98
2023-01-13T06:27:58.416Z,16.17
2023-01-13T06:30:25.421Z,12.80
2023-01-13T06:32:53.459Z,18.95
2023-01-13T06:35:22.482Z,13.73
2023-01-13T06:37:50.007Z,21.48
2023-01-13T06:40:16.784Z,20.38
2023-01-13T06:43:01.944Z,16.23
2023-01-13T06:45:29.903Z,20.58
2023-01-13T06:47:57.807Z,22.90
2023-01-13T06:50:24.373Z,24.30
2023-01-13T06:52:50.739Z,25.42
2023-01-13T06:55:17.232Z,23.67
2023-01-13T06:58:01.923Z,17.60
2023-01-13T07:00:28.332Z,16.23
2023-01-13T07:03:06.983Z,18.83
2023-01-13T07:05:33.490Z,21.95
2023-01-13T07:07:59.932Z,16.00
2023-01-13T07:10:26.400Z,18.05
2023-01-13T07:13:11.474Z,16.70
2023-01-13T07:15:37.884Z,17.75
2023-01-13T07:18:04.299Z,14.13
2023-01-13T07:20:30.766Z,19.05
2023-01-13T07:22:57.663Z,26.10
2023-01-13T07:25:24.312Z,24.40
2023-01-13T07:27:50.701Z,17.30
2023-01-13T07:30:17.322Z,10.55
2023-01-13T07:32:43.768Z,13.90
2023-01-13T07:35:10.206Z,13.32
2023-01-13T07:37:37.633Z,23.10
2023-01-13T07:40:04.704Z,20.88
2023-01-13T07:42:49.531Z,13.60
2023-01-13T07:45:15.963Z,13.50
2023-01-13T07:47:42.343Z,16.17
2023-01-13T07:50:09.432Z,23.58
2023-01-13T07:52:35.945Z,20.60
2023-01-13T07:55:03.491Z,21.27
2023-01-13T07:57:29.913Z,16.27
2023-01-13T07:59:56.332Z,26.15
2023-01-13T08:02:23.016Z,19.38
2023-01-13T08:04:49.593Z,20.33
2023-01-13T08:07:15.956Z,20.08
2023-01-13T08:09:42.295Z,20.67
2023-01-13T08:12:27.512Z,15.88
2023-01-13T08:14:54.144Z,15.50
2023-01-13T08:17:20.833Z,14.90
2023-01-13T08:19:47.531Z,19.00
2023-01-13T08:22:14.021Z,14.30
2023-01-13T08:24:40.407Z,14.85
2023-01-13T08:27:07.098Z,20.58
2023-01-13T08:29:33.684Z,26.33
2023-01-13T08:32:00.048Z,16.80
2023-01-13T08:34:26.433Z,15.20
2023-01-13T08:36:52.838Z,14.93
2023-01-13T08:39:19.340Z,15.20
2023-01-13T08:41:55.044Z,19.83
2023-01-13T08:44:22.859Z,30.52
2023-01-13T08:46:49.475Z,19.25
2023-01-13T08:49:16.315Z,24.33
2023-01-13T08:51:42.827Z,17.80
2023-01-13T08:54:09.358Z,18.27
2023-01-13T08:56:35.975Z,22.30
2023-01-13T08:59:02.558Z,14.13
2023-01-13T09:01:29.217Z,17.85
2023-01-13T09:03:55.928Z,13.40
2023-01-13T09:06:22.567Z,20.35
2023-01-13T09:08:48.994Z,25.52
2023-01-13T09:11:37.090Z,20.48
2023-01-13T09:14:03.809Z,17.30
2023-01-13T09:16:30.258Z,23.83
2023-01-13T09:18:56.721Z,14.45
2023-01-13T09:21:23.528Z,19.10
2023-01-13T09:23:49.883Z,18.02
2023-01-13T09:26:18.264Z,17.83
2023-01-13T09:28:44.827Z,25.17
2023-01-13T09:31:11.490Z,25.33
2023-01-13T09:33:56.737Z,21.50
2023-01-13T09:36:23.068Z,17.13
2023-01-13T09:38:50.203Z,20.58
2023-01-13T09:41:39.266Z,20.75
2023-01-13T09:44:07.210Z,17.73
2023-01-13T09:46:43.822Z,19.30
2023-01-13T09:49:15.941Z,16.92
2023-01-13T09:51:46.173Z,15.77
2023-01-13T09:54:16.526Z,23.00
2023-01-13T09:56:42.952Z,18.38
2023-01-13T09:59:11.004Z,15.90
2023-01-13T10:01:52.612Z,15.95
2023-01-13T10:04:19.193Z,16.98
2023-01-13T10:06:51.002Z,21.17
2023-01-13T10:09:46.659Z,18.77
2023-01-13T10:12:50.228Z,18.85
2023-01-13T10:15:23.082Z,15.77
2023-01-13T10:18:08.391Z,16.77
2023-01-13T10:20:40.679Z,19.23
2023-01-13T10:23:22.125Z,15.23
2023-01-13T10:25:51.723Z,16.63
2023-01-13T10:28:19.623Z,14.85
2023-01-13T10:30:47.035Z,25.52
2023-01-13T10:33:18.211Z,18.42
2023-01-13T10:35:52.892Z,17.98
2023-01-13T10:38:30.321Z,15.70
2023-01-13T10:40:56.736Z,23.90
2023-01-13T10:43:23.281Z,21.20
2023-01-13T10:45:57.923Z,17.17
2023-01-13T10:48:31.678Z,16.60
2023-01-13T10:50:58.373Z,9.57
2023-01-13T10:53:25.401Z,17.08
2023-01-13T10:56:02.442Z,23.55
2023-01-13T10:58:29.034Z,16.63
2023-01-13T11:01:00.287Z,15.27
2023-01-13T11:03:34.316Z,12.65
2023-01-13T11:06:00.775Z,23.13
2023-01-13T11:08:46.514Z,12.50
2023-01-13T11:11:25.350Z,12.45
2023-01-13T11:14:12.503Z,15.43
2023-01-13T11:16:47.328Z,9.27
2023-01-13T11:19:20.774Z,16.65
2023-01-13T11:21:54.624Z,18.17
2023-01-13T11:24:30.058Z,9.82
2023-01-13T11:27:04.555Z,10.15
2023-01-13T11:29:50.124Z,11.63
2023-01-13T11:34:45.171Z,12.88
2023-01-13T11:37:23.824Z,16.88
2023-01-13T11:40:03.950Z,21.23
2023-01-13T11:42:36.548Z,10.05
2023-01-13T11:45:03.105Z,12.63
2023-01-13T11:47:29.834Z,15.27
2023-01-13T11:49:56.534Z,22.45
2023-01-13T11:52:41.765Z,16.50
2023-01-13T11:55:27.047Z,20.48
2023-01-13T11:57:53.417Z,19.65
2023-01-13T12:00:19.763Z,15.70
2023-01-13T12:02:57.024Z,18.48
2023-01-13T12:05:32.683Z,17.08
2023-01-13T12:07:59.235Z,13.45
2023-01-13T12:10:29.990Z,14.88
2023-01-13T12:12:58.291Z,18.73
2023-01-13T12:15:25.876Z,14.07
2023-01-13T12:17:52.249Z,12.43
2023-01-13T12:20:18.805Z,16.05
2023-01-13T12:22:46.925Z,15.63
2023-01-13T12:25:18.094Z,12.55
2023-01-13T12:27:58.442Z,16.55
2023-01-13T12:30:54.448Z,15.75
2023-01-13T12:35:51.380Z,10.90
2023-01-13T12:38:21.211Z,14.30
2023-01-13T12:41:07.807Z,10.35
2023-01-13T12:43:53.047Z,19.33
2023-01-13T12:46:19.501Z,15.45
2023-01-13T12:48:49.355Z,15.90
2023-01-13T12:51:42.136Z,17.95
2023-01-13T12:54:27.099Z,16.48
2023-01-13T12:56:54.082Z,26.02
2023-01-13T12:59:20.569Z,15.35
2023-01-13T13:01:51.224Z,21.05
2023-01-13T13:04:18.906Z,15.25
2023-01-13T13:06:51.154Z,14.70
2023-01-13T13:09:21.369Z,16.52
2023-01-13T13:11:58.084Z,16.60
2023-01-13T13:14:42.680Z,18.35
2023-01-13T13:17:27.914Z,12.05
2023-01-13T13:19:55.068Z,15.43
2023-01-13T13:22:36.146Z,20.30
2023-01-13T13:25:02.475Z,21.10
2023-01-13T13:27:42.719Z,18.20
2023-01-13T13:30:12.279Z,14.43
2023-01-13T13:32:47.826Z,19.33
2023-01-13T13:35:26.334Z,13.18
2023-01-13T13:38:11.689Z,13.82
2023-01-13T13:41:01.639Z,17.40
2023-01-13T13:43:46.986Z,13.85
2023-01-13T13:46:45.477Z,11.13
2023-01-13T13:49:12.323Z,17.58
2023-01-13T13:51:49.229Z,17.80
2023-01-13T13:54:20.605Z,14.27
2023-01-13T13:56:47.858Z,10.63
2023-01-13T13:59:17.193Z,16.00
2023-01-13T14:01:45.169Z,14.18
2023-01-13T14:04:22.387Z,9.98
2023-01-13T14:06:56.369Z,10.73
2023-01-13T14:09:23.871Z,12.20
2023-01-13T14:11:58.359Z,10.25
2023-01-13T14:14:25.395Z,8.95
2023-01-13T14:16:52.176Z,10.10
2023-01-13T14:19:29.889Z,15.25
2023-01-13T14:21:56.806Z,17.92
2023-01-13T14:24:25.192Z,14.90
2023-01-13T14:26:53.327Z,18.90
2023-01-13T14:29:21.578Z,9.52
2023-01-13T14:31:49.169Z,13.88
2023-01-13T14:34:30.994Z,16.83
2023-01-13T14:37:00.653Z,16.17
2023-01-13T14:39:34.739Z,19.00
2023-01-13T14:42:01.237Z,19.90
2023-01-13T14:44:35.039Z,13.43
2023-01-13T14:47:17.943Z,19.15
2023-01-13T14:49:53.254Z,21.42
2023-01-13T14:52:21.184Z,15.88
2023-01-13T14:54:51.791Z,12.13
2023-01-13T14:57:28.481Z,12.80
2023-01-13T14:59:57.385Z,17.92
2023-01-13T15:02:30.092Z,16.15
2023-01-13T15:04:59.101Z,16.40
2023-01-13T15:07:25.541Z,16.02
2023-01-13T15:09:59.788Z,17.05
2023-01-13T15:12:46.444Z,18.30
2023-01-13T15:15:19.635Z,13.15
2023-01-13T15:17:48.905Z,13.20
2023-01-13T15:20:16.256Z,14.75
2023-01-13T15:22:42.928Z,16.20
2023-01-13T15:25:12.046Z,13.75
2023-01-13T15:27:38.753Z,14.48
2023-01-13T15:30:14.681Z,14.00
2023-01-13T15:32:41.356Z,18.02
2023-01-13T15:35:08.606Z,16.52
2023-01-13T15:37:35.904Z,19.13
2023-01-13T15:40:02.346Z,11.68
2023-01-13T15:42:47.181Z,11.88
2023-01-13T15:45:32.094Z,14.88
2023-01-13T15:47:59.802Z,17.33
2023-01-13T15:50:26.896Z,7.95
2023-01-13T15:52:53.273Z,13.02
2023-01-13T15:55:19.612Z,11.30
2023-01-13T15:57:48.918Z,14.77
2023-01-13T16:00:22.788Z,17.67
2023-01-13T16:02:50.043Z,8.43
2023-01-13T16:05:16.794Z,20.13
2023-01-13T16:07:43.270Z,11.63
2023-01-13T16:10:17.792Z,13.00
2023-01-13T16:12:44.188Z,13.07
2023-01-13T16:15:14.590Z,9.45
2023-01-13T16:17:42.177Z,10.35
2023-01-13T16:20:15.765Z,13.82
2023-01-13T16:22:42.608Z,20.15
2023-01-13T16:25:15.713Z,9.20
2023-01-13T16:27:42.047Z,10.50
2023-01-13T16:30:16.638Z,9.85
2023-01-13T16:32:43.049Z,8.88
2023-01-13T16:35:10.629Z,15.85
2023-01-13T16:37:37.012Z,5.55
2023-01-13T16:40:03.652Z,11.32
2023-01-13T16:42:30.358Z,8.60
2023-01-13T16:44:58.665Z,12.32
2023-01-13T16:47:25.215Z,6.93
2023-01-13T16:49:51.600Z,7.25
2023-01-13T16:52:18.031Z,5.32
2023-01-13T16:54:44.444Z,11.13
2023-01-13T16:57:12.628Z,9.45
2023-01-13T16:59:39.036Z,14.98
2023-01-13T17:02:05.707Z,12.45
2023-01-13T17:04:32.055Z,16.75
2023-01-13T17:07:00.536Z,18.77
2023-01-13T17:09:27.746Z,19.80
2023-01-13T17:11:54.709Z,12.82
2023-01-13T17:14:23.334Z,16.77
2023-01-13T17:16:50.676Z,18.55
2023-01-13T17:19:18.264Z,19.77
2023-01-13T17:21:44.755Z,18.15
2023-01-13T17:24:12.388Z,22.92
2023-01-13T17:26:44.082Z,20.75
2023-01-13T17:29:14.590Z,24.85
2023-01-13T17:31:41.369Z,15.40
2023-01-13T17:34:08.180Z,14.80
2023-01-13T17:36:34.965Z,17.65
2023-01-13T17:39:01.409Z,13.05
2023-01-13T17:41:27.790Z,14.27
2023-01-13T17:43:54.403Z,15.80
2023-01-13T17:46:22.600Z,16.08
2023-01-13T17:48:53.617Z,19.92
2023-01-13T17:51:20.905Z,17.00
2023-01-13T17:53:47.663Z,13.48
2023-01-13T17:56:15.012Z,18.42
2023-01-13T17:58:45.580Z,13.77
2023-01-13T18:01:19.800Z,11.75
2023-01-13T18:03:46.800Z,11.03
2023-01-13T18:06:20.975Z,13.13
2023-01-13T18:08:47.650Z,8.45
2023-01-13T18:11:14.384Z,11.32
2023-01-13T18:13:43.723Z,18.05
2023-01-13T18:16:13.936Z,12.18
2023-01-13T18:18:41.568Z,37.88
2023-01-13T18:21:27.188Z,42.83
2023-01-13T18:26:57.281Z,11.55
2023-01-13T18:29:23.767Z,16.27
2023-01-13T18:31:50.292Z,14.27
2023-01-13T18:34:16.766Z,7.50
2023-01-13T18:36:43.110Z,10.07
2023-01-13T18:39:09.646Z,14.07
2023-01-13T18:41:54.526Z,13.85
2023-01-13T18:44:20.979Z,11.40
2023-01-13T18:46:47.390Z,15.00
2023-01-13T18:49:14.235Z,14.32
2023-01-13T18:51:41.126Z,9.95
2023-01-13T18:54:07.556Z,9.70
2023-01-13T18:56:33.908Z,8.38
2023-01-13T18:59:01.869Z,8.63
2023-01-13T19:01:29.621Z,10.00
2023-01-13T19:03:56.898Z,13.15
2023-01-13T19:06:29.608Z,14.60
2023-01-13T19:09:08.311Z,21.27
2023-01-13T19:11:36.171Z,9.57
2023-01-13T19:14:03.471Z,13.95
2023-01-13T19:16:30.023Z,20.60
2023-01-13T19:18:56.363Z,10.55
2023-01-13T19:21:23.732Z,16.98
2023-01-13T19:23:55.314Z,9.65
2023-01-13T19:26:21.732Z,12.45
2023-01-13T19:28:48.668Z,8.07
2023-01-13T19:31:17.177Z,11.40
2023-01-13T19:33:43.568Z,9.93
2023-01-13T19:36:10.936Z,11.82
2023-01-13T19:38:37.689Z,9.63
2023-01-13T19:41:11.081Z,14.55
2023-01-13T19:43:55.789Z,16.65
2023-01-13T19:46:26.509Z,8.40
2023-01-13T19:48:53.007Z,11.02
2023-01-13T19:51:19.515Z,8.18
2023-01-13T19:53:48.908Z,9.95
2023-01-13T19:56:18.122Z,19.90
2023-01-13T19:58:50.458Z,14.85
2023-01-13T20:01:16.836Z,9.18
2023-01-13T20:03:46.225Z,10.88
2023-01-13T20:06:14.044Z,9.13
2023-01-13T20:08:41.870Z,9.88
2023-01-13T20:11:22.389Z,15.68
2023-01-13T20:13:49.012Z,12.85
2023-01-13T20:16:15.618Z,12.82
2023-01-13T20:18:42.001Z,13.05
2023-01-13T20:21:08.439Z,12.55
2023-01-13T20:23:34.861Z,12.70
2023-01-13T20:26:01.369Z,14.35
2023-01-13T20:28:28.176Z,7.70
2023-01-13T20:30:55.781Z,12.85
2023-01-13T20:33:22.153Z,13.38
2023-01-13T20:35:56.003Z,11.38
2023-01-13T20:38:22.365Z,12.45
2023-01-13T20:40:57.607Z,11.77
2023-01-13T20:45:50.257Z,13.65
2023-01-13T20:48:16.700Z,9.90
2023-01-13T20:50:43.174Z,10.40
2023-01-13T20:53:10.015Z,8.75
2023-01-13T20:55:39.167Z,10.50
2023-01-13T20:58:05.544Z,8.75
2023-01-13T21:00:32.009Z,10.15
2023-01-13T21:02:59.860Z,10.00
2023-01-13T21:05:26.276Z,13.27
2023-01-13T21:07:52.652Z,9.75
2023-01-13T21:10:19.208Z,8.95
2023-01-13T21:13:04.234Z,9.55
2023-01-13T21:15:31.104Z,17.67
2023-01-13T21:18:16.065Z,9.60
2023-01-13T21:20:42.665Z,12.07
2023-01-13T21:23:10.894Z,13.50
2023-01-13T21:25:39.661Z,10.20
2023-01-13T21:28:06.745Z,17.58
2023-01-13T21:30:33.576Z,13.43
2023-01-13T21:33:00.919Z,10.43
2023-01-13T21:35:27.791Z,9.70
2023-01-13T21:37:54.347Z,14.27
2023-01-13T21:40:21.480Z,12.93
2023-01-13T21:43:06.539Z,7.60
2023-01-13T21:45:51.334Z,9.38
2023-01-13T21:48:17.690Z,18.17
2023-01-13T21:50:45.443Z,9.13
2023-01-13T21:53:11.915Z,9.50
2023-01-13T21:55:38.483Z,9.50
2023-01-13T21:58:12.712Z,14.93
2023-01-13T22:00:40.151Z,12.20
2023-01-13T22:03:07.179Z,14.68
2023-01-13T22:05:34.174Z,8.63
2023-01-13T22:08:00.764Z,10.02
2023-01-13T22:10:28.080Z,13.50
2023-01-13T22:12:55.174Z,10.85
2023-01-13T22:15:22.291Z,11.88
2023-01-13T22:17:53.639Z,14.55
2023-01-13T22:20:20.249Z,17.98
2023-01-13T22:22:46.972Z,19.38
2023-01-13T22:25:14.393Z,11.32
2023-01-13T22:27:42.456Z,12.20
2023-01-13T22:30:12.183Z,14.27
2023-01-13T22:32:38.774Z,15.90
2023-01-13T22:35:06.192Z,6.97
2023-01-13T22:37:32.766Z,13.05
2023-01-13T22:39:59.182Z,9.30
2023-01-13T22:42:25.930Z,10.38
2023-01-13T22:44:52.406Z,20.40
2023-01-13T22:47:19.038Z,13.93
2023-01-13T22:49:47.783Z,10.35
2023-01-13T22:52:14.893Z,11.88
2023-01-13T22:54:41.380Z,8.80
2023-01-13T22:57:07.732Z,10.50
2023-01-13T22:59:34.315Z,12.43
2023-01-13T23:02:00.803Z,10.07
2023-01-13T23:04:27.346Z,25.50
2023-01-13T23:06:53.699Z,15.38
2023-01-13T23:09:20.309Z,12.88
2023-01-13T23:11:47.868Z,9.60
2023-01-13T23:14:14.425Z,12.55
2023-01-13T23:16:41.255Z,11.00
2023-01-13T23:19:08.139Z,9.40
2023-01-13T23:21:36.206Z,6.88
2023-01-13T23:24:03.946Z,14.05
2023-01-13T23:26:30.877Z,15.32
2023-01-13T23:29:02.013Z,11.30
2023-01-13T23:31:28.489Z,14.52
2023-01-13T23:33:54.861Z,10.05
2023-01-13T23:36:23.391Z,11.55
2023-01-13T23:38:50.214Z,12.88
2023-01-13T23:41:18.286Z,10.20
2023-01-13T23:43:49.677Z,12.93
2023-01-13T23:46:16.907Z,7.88
2023-01-13T23:48:43.352Z,11.43
2023-01-13T23:51:11.830Z,17.45
2023-01-13T23:53:40.470Z,21.25
2023-01-13T23:56:08.289Z,17.10
2023-01-13T23:58:35.265Z,14.70
